sensor_id;sensor_type;location;lat;lon;timestamp;temperature;humidity
40828;DHT22;26549;50.918;5.338;2023-02-15T00:01:44;5.60;99.90
40828;DHT22;26549;50.918;5.338;2023-02-15T00:04:13;5.50;99.90
40828;DHT22;26549;50.918;5.338;2023-02-15T00:06:39;5.40;99.90
40828;DHT22;26549;50.918;5.338;2023-02-15T00:09:05;5.30;99.90
40828;DHT22;26549;50.918;5.338;2023-02-15T00:11:31;5.50;99.90
40828;DHT22;26549;50.918;5.338;2023-02-15T00:14:08;5.40;99.90
40828;DHT22;26549;50.918;5.338;2023-02-15T00:16:34;5.40;99.90
40828;DHT22;26549;50.918;5.338;2023-02-15T00:19:01;5.40;99.90
40828;DHT22;26549;50.918;5.338;2023-02-15T00:21:29;5.40;99.90
40828;DHT22;26549;50.918;5.338;2023-02-15T00:23:56;5.40;99.90
40828;DHT22;26549;50.918;5.338;2023-02-15T00:26:22;5.40;99.90
40828;DHT22;26549;50.918;5.338;2023-02-15T00:28:48;5.30;99.90
40828;DHT22;26549;50.918;5.338;2023-02-15T00:31:13;5.20;99.90
40828;DHT22;26549;50.918;5.338;2023-02-15T00:33:40;5.30;99.90
40828;DHT22;26549;50.918;5.338;2023-02-15T00:36:08;5.30;99.90
40828;DHT22;26549;50.918;5.338;2023-02-15T00:38:34;5.30;99.90
40828;DHT22;26549;50.918;5.338;2023-02-15T00:41:01;5.30;99.90
40828;DHT22;26549;50.918;5.338;2023-02-15T00:43:29;5.30;99.90
40828;DHT22;26549;50.918;5.338;2023-02-15T00:45:56;5.10;99.90
40828;DHT22;26549;50.918;5.338;2023-02-15T00:48:23;5.10;99.90
40828;DHT22;26549;50.918;5.338;2023-02-15T00:50:52;5.10;99.90
40828;DHT22;26549;50.918;5.338;2023-02-15T00:53:19;5.10;99.90
40828;DHT22;26549;50.918;5.338;2023-02-15T00:55:45;5.10;99.90
40828;DHT22;26549;50.918;5.338;2023-02-15T00:58:11;5.00;99.90
40828;DHT22;26549;50.918;5.338;2023-02-15T01:00:38;5.10;99.90
40828;DHT22;26549;50.918;5.338;2023-02-15T01:03:04;5.00;99.90
40828;DHT22;26549;50.918;5.338;2023-02-15T01:05:30;5.00;99.90
40828;DHT22;26549;50.918;5.338;2023-02-15T01:07:58;5.00;99.90
40828;DHT22;26549;50.918;5.338;2023-02-15T01:10:24;5.00;99.90
40828;DHT22;26549;50.918;5.338;2023-02-15T01:12:51;4.90;99.90
40828;DHT22;26549;50.918;5.338;2023-02-15T01:15:17;4.80;99.90
40828;DHT22;26549;50.918;5.338;2023-02-15T01:17:42;4.80;99.90
40828;DHT22;26549;50.918;5.338;2023-02-15T01:20:11;4.80;99.90
40828;DHT22;26549;50.918;5.338;2023-02-15T01:22:37;4.70;99.90
40828;DHT22;26549;50.918;5.338;2023-02-15T01:25:03;4.70;99.90
40828;DHT22;26549;50.918;5.338;2023-02-15T01:27:29;4.80;99.90
40828;DHT22;26549;50.918;5.338;2023-02-15T01:29:58;4.80;99.90
40828;DHT22;26549;50.918;5.338;2023-02-15T01:32:23;4.80;99.90
40828;DHT22;26549;50.918;5.338;2023-02-15T01:34:49;4.90;99.90
40828;DHT22;26549;50.918;5.338;2023-02-15T01:37:15;4.90;99.90
40828;DHT22;26549;50.918;5.338;2023-02-15T01:39:41;4.80;99.90
40828;DHT22;26549;50.918;5.338;2023-02-15T01:42:10;4.70;99.90
40828;DHT22;26549;50.918;5.338;2023-02-15T01:47:38;4.70;99.90
40828;DHT22;26549;50.918;5.338;2023-02-15T01:53:20;4.60;99.90
40828;DHT22;26549;50.918;5.338;2023-02-15T01:56:32;4.60;99.90
40828;DHT22;26549;50.918;5.338;2023-02-15T01:58:38;4.60;99.90
40828;DHT22;26549;50.918;5.338;2023-02-15T02:01:04;4.60;99.90
40828;DHT22;26549;50.918;5.338;2023-02-15T02:06:11;4.60;99.90
40828;DHT22;26549;50.918;5.338;2023-02-15T02:08:37;4.50;99.90
40828;DHT22;26549;50.918;5.338;2023-02-15T02:11:13;4.40;99.90
40828;DHT22;26549;50.918;5.338;2023-02-15T02:13:40;4.30;99.90
40828;DHT22;26549;50.918;5.338;2023-02-15T02:19:46;4.40;99.90
40828;DHT22;26549;50.918;5.338;2023-02-15T02:22:54;4.30;99.90
40828;DHT22;26549;50.918;5.338;2023-02-15T02:34:05;4.40;99.90
40828;DHT22;26549;50.918;5.338;2023-02-15T02:39:30;4.30;99.90
40828;DHT22;26549;50.918;5.338;2023-02-15T02:42:09;4.30;99.90
40828;DHT22;26549;50.918;5.338;2023-02-15T02:47:49;4.30;99.90
40828;DHT22;26549;50.918;5.338;2023-02-15T02:50:22;4.40;99.90
40828;DHT22;26549;50.918;5.338;2023-02-15T02:52:51;4.30;99.90
40828;DHT22;26549;50.918;5.338;2023-02-15T02:55:25;4.30;99.90
40828;DHT22;26549;50.918;5.338;2023-02-15T02:58:05;4.20;99.90
40828;DHT22;26549;50.918;5.338;2023-02-15T03:00:40;4.20;99.90
40828;DHT22;26549;50.918;5.338;2023-02-15T03:05:47;4.10;99.90
40828;DHT22;26549;50.918;5.338;2023-02-15T03:08:18;4.10;99.90
40828;DHT22;26549;50.918;5.338;2023-02-15T03:10:48;4.20;99.90
40828;DHT22;26549;50.918;5.338;2023-02-15T03:13:14;4.20;99.90
40828;DHT22;26549;50.918;5.338;2023-02-15T03:15:42;4.10;99.90
40828;DHT22;26549;50.918;5.338;2023-02-15T03:18:37;4.10;99.90
40828;DHT22;26549;50.918;5.338;2023-02-15T03:21:03;4.10;99.90
40828;DHT22;26549;50.918;5.338;2023-02-15T03:23:30;4.20;99.90
40828;DHT22;26549;50.918;5.338;2023-02-15T03:26:04;4.10;99.90
40828;DHT22;26549;50.918;5.338;2023-02-15T03:28:51;4.10;99.90
40828;DHT22;26549;50.918;5.338;2023-02-15T03:31:20;4.10;99.90
40828;DHT22;26549;50.918;5.338;2023-02-15T03:33:59;4.00;99.90
40828;DHT22;26549;50.918;5.338;2023-02-15T03:36:38;4.00;99.90
40828;DHT22;26549;50.918;5.338;2023-02-15T03:42:25;4.10;99.90
40828;DHT22;26549;50.918;5.338;2023-02-15T03:45:02;4.00;99.90
40828;DHT22;26549;50.918;5.338;2023-02-15T03:47:46;4.00;99.90
40828;DHT22;26549;50.918;5.338;2023-02-15T03:50:24;4.00;99.90
40828;DHT22;26549;50.918;5.338;2023-02-15T03:53:14;3.90;99.90
40828;DHT22;26549;50.918;5.338;2023-02-15T03:55:42;3.90;99.90
40828;DHT22;26549;50.918;5.338;2023-02-15T03:58:11;3.90;99.90
40828;DHT22;26549;50.918;5.338;2023-02-15T04:00:59;3.90;99.90
40828;DHT22;26549;50.918;5.338;2023-02-15T04:03:49;3.90;99.90
40828;DHT22;26549;50.918;5.338;2023-02-15T04:06:17;3.90;99.90
40828;DHT22;26549;50.918;5.338;2023-02-15T04:08:42;3.90;99.90
40828;DHT22;26549;50.918;5.338;2023-02-15T04:11:26;4.00;99.90
40828;DHT22;26549;50.918;5.338;2023-02-15T04:13:52;3.90;99.90
40828;DHT22;26549;50.918;5.338;2023-02-15T04:16:23;3.90;99.90
40828;DHT22;26549;50.918;5.338;2023-02-15T04:18:49;3.90;99.90
40828;DHT22;26549;50.918;5.338;2023-02-15T04:21:33;3.80;99.90
40828;DHT22;26549;50.918;5.338;2023-02-15T04:24:18;3.80;99.90
40828;DHT22;26549;50.918;5.338;2023-02-15T04:27:03;3.70;99.90
40828;DHT22;26549;50.918;5.338;2023-02-15T04:29:30;3.60;99.90
40828;DHT22;26549;50.918;5.338;2023-02-15T04:31:58;3.70;99.90
40828;DHT22;26549;50.918;5.338;2023-02-15T04:34:24;3.80;99.90
40828;DHT22;26549;50.918;5.338;2023-02-15T04:36:50;3.80;99.90
40828;DHT22;26549;50.918;5.338;2023-02-15T04:39:18;3.80;99.90
40828;DHT22;26549;50.918;5.338;2023-02-15T04:41:43;3.80;99.90
40828;DHT22;26549;50.918;5.338;2023-02-15T04:44:09;3.70;99.90
40828;DHT22;26549;50.918;5.338;2023-02-15T04:46:35;3.70;99.90
40828;DHT22;26549;50.918;5.338;2023-02-15T04:49:01;3.70;99.90
40828;DHT22;26549;50.918;5.338;2023-02-15T04:51:28;3.80;99.90
40828;DHT22;26549;50.918;5.338;2023-02-15T04:53:54;3.80;99.90
40828;DHT22;26549;50.918;5.338;2023-02-15T04:56:21;3.70;99.90
40828;DHT22;26549;50.918;5.338;2023-02-15T04:58:47;3.70;99.90
40828;DHT22;26549;50.918;5.338;2023-02-15T05:01:13;3.70;99.90
40828;DHT22;26549;50.918;5.338;2023-02-15T05:03:39;3.70;99.90
40828;DHT22;26549;50.918;5.338;2023-02-15T05:06:05;3.70;99.90
40828;DHT22;26549;50.918;5.338;2023-02-15T05:08:31;3.70;99.90
40828;DHT22;26549;50.918;5.338;2023-02-15T05:10:57;3.70;99.90
40828;DHT22;26549;50.918;5.338;2023-02-15T05:13:23;3.70;99.90
40828;DHT22;26549;50.918;5.338;2023-02-15T05:15:50;3.70;99.90
40828;DHT22;26549;50.918;5.338;2023-02-15T05:18:17;3.60;99.90
40828;DHT22;26549;50.918;5.338;2023-02-15T05:20:44;3.60;99.90
40828;DHT22;26549;50.918;5.338;2023-02-15T05:23:10;3.70;99.90
40828;DHT22;26549;50.918;5.338;2023-02-15T05:25:36;3.60;99.90
40828;DHT22;26549;50.918;5.338;2023-02-15T05:28:20;3.60;99.90
40828;DHT22;26549;50.918;5.338;2023-02-15T05:30:53;3.50;99.90
40828;DHT22;26549;50.918;5.338;2023-02-15T05:33:24;3.60;99.90
40828;DHT22;26549;50.918;5.338;2023-02-15T05:35:50;3.60;99.90
40828;DHT22;26549;50.918;5.338;2023-02-15T05:38:16;3.60;99.90
40828;DHT22;26549;50.918;5.338;2023-02-15T05:40:42;3.60;99.90
40828;DHT22;26549;50.918;5.338;2023-02-15T05:43:08;3.70;99.90
40828;DHT22;26549;50.918;5.338;2023-02-15T05:45:33;3.70;99.90
40828;DHT22;26549;50.918;5.338;2023-02-15T05:47:59;3.70;99.90
40828;DHT22;26549;50.918;5.338;2023-02-15T05:50:25;3.80;99.90
40828;DHT22;26549;50.918;5.338;2023-02-15T05:52:51;3.70;99.90
40828;DHT22;26549;50.918;5.338;2023-02-15T05:55:18;3.60;99.90
40828;DHT22;26549;50.918;5.338;2023-02-15T05:57:43;3.50;99.90
40828;DHT22;26549;50.918;5.338;2023-02-15T06:00:10;3.50;99.90
40828;DHT22;26549;50.918;5.338;2023-02-15T06:02:37;3.50;99.90
40828;DHT22;26549;50.918;5.338;2023-02-15T06:05:04;3.60;99.90
40828;DHT22;26549;50.918;5.338;2023-02-15T06:07:30;3.40;99.90
40828;DHT22;26549;50.918;5.338;2023-02-15T06:09:56;3.40;99.90
40828;DHT22;26549;50.918;5.338;2023-02-15T06:12:22;3.40;99.90
40828;DHT22;26549;50.918;5.338;2023-02-15T06:14:48;3.50;99.90
40828;DHT22;26549;50.918;5.338;2023-02-15T06:17:14;3.50;99.90
40828;DHT22;26549;50.918;5.338;2023-02-15T06:19:40;3.40;99.90
40828;DHT22;26549;50.918;5.338;2023-02-15T06:22:06;3.40;99.90
40828;DHT22;26549;50.918;5.338;2023-02-15T06:24:34;3.60;99.90
40828;DHT22;26549;50.918;5.338;2023-02-15T06:26:59;3.40;99.90
40828;DHT22;26549;50.918;5.338;2023-02-15T06:29:25;3.40;99.90
40828;DHT22;26549;50.918;5.338;2023-02-15T06:31:51;3.40;99.90
40828;DHT22;26549;50.918;5.338;2023-02-15T06:34:17;3.40;99.90
40828;DHT22;26549;50.918;5.338;2023-02-15T06:36:42;3.30;99.90
40828;DHT22;26549;50.918;5.338;2023-02-15T06:39:08;3.30;99.90
40828;DHT22;26549;50.918;5.338;2023-02-15T06:41:34;3.20;99.90
40828;DHT22;26549;50.918;5.338;2023-02-15T06:44:00;3.20;99.90
40828;DHT22;26549;50.918;5.338;2023-02-15T06:46:27;3.50;99.90
40828;DHT22;26549;50.918;5.338;2023-02-15T06:48:54;3.30;99.90
40828;DHT22;26549;50.918;5.338;2023-02-15T06:51:20;3.20;99.90
40828;DHT22;26549;50.918;5.338;2023-02-15T06:53:45;3.30;99.90
40828;DHT22;26549;50.918;5.338;2023-02-15T06:56:14;3.30;99.90
40828;DHT22;26549;50.918;5.338;2023-02-15T06:58:40;3.30;99.90
40828;DHT22;26549;50.918;5.338;2023-02-15T07:01:07;3.40;99.90
40828;DHT22;26549;50.918;5.338;2023-02-15T07:03:35;3.40;99.90
40828;DHT22;26549;50.918;5.338;2023-02-15T07:06:03;3.40;99.90
40828;DHT22;26549;50.918;5.338;2023-02-15T07:08:31;3.40;99.90
40828;DHT22;26549;50.918;5.338;2023-02-15T07:10:57;3.40;99.90
40828;DHT22;26549;50.918;5.338;2023-02-15T07:13:43;3.50;99.90
40828;DHT22;26549;50.918;5.338;2023-02-15T07:16:09;3.40;99.90
40828;DHT22;26549;50.918;5.338;2023-02-15T07:18:35;3.40;99.90
40828;DHT22;26549;50.918;5.338;2023-02-15T07:21:01;3.40;99.90
40828;DHT22;26549;50.918;5.338;2023-02-15T07:23:27;3.50;99.90
40828;DHT22;26549;50.918;5.338;2023-02-15T07:26:00;3.60;99.90
40828;DHT22;26549;50.918;5.338;2023-02-15T07:28:27;3.50;99.90
40828;DHT22;26549;50.918;5.338;2023-02-15T07:30:53;3.60;99.90
40828;DHT22;26549;50.918;5.338;2023-02-15T07:33:19;3.80;99.90
40828;DHT22;26549;50.918;5.338;2023-02-15T07:36:01;3.90;99.90
40828;DHT22;26549;50.918;5.338;2023-02-15T07:38:33;3.90;99.90
40828;DHT22;26549;50.918;5.338;2023-02-15T07:41:00;3.90;99.90
40828;DHT22;26549;50.918;5.338;2023-02-15T07:43:26;4.00;99.90
40828;DHT22;26549;50.918;5.338;2023-02-15T07:45:52;4.10;99.90
40828;DHT22;26549;50.918;5.338;2023-02-15T07:48:18;4.00;99.90
40828;DHT22;26549;50.918;5.338;2023-02-15T07:50:44;4.10;99.90
40828;DHT22;26549;50.918;5.338;2023-02-15T07:53:11;4.20;99.90
40828;DHT22;26549;50.918;5.338;2023-02-15T07:55:37;4.30;99.90
40828;DHT22;26549;50.918;5.338;2023-02-15T07:58:03;4.50;99.90
40828;DHT22;26549;50.918;5.338;2023-02-15T08:00:29;4.50;99.90
40828;DHT22;26549;50.918;5.338;2023-02-15T08:02:55;4.60;99.90
40828;DHT22;26549;50.918;5.338;2023-02-15T08:05:44;4.70;99.90
40828;DHT22;26549;50.918;5.338;2023-02-15T08:08:13;4.70;99.90
40828;DHT22;26549;50.918;5.338;2023-02-15T08:11:31;4.70;99.90
40828;DHT22;26549;50.918;5.338;2023-02-15T08:16:39;5.00;99.90
40828;DHT22;26549;50.918;5.338;2023-02-15T08:19:22;5.00;99.90
40828;DHT22;26549;50.918;5.338;2023-02-15T08:22:00;5.20;99.90
40828;DHT22;26549;50.918;5.338;2023-02-15T08:24:30;5.30;99.90
40828;DHT22;26549;50.918;5.338;2023-02-15T08:26:56;5.30;99.90
40828;DHT22;26549;50.918;5.338;2023-02-15T08:29:27;5.50;99.90
40828;DHT22;26549;50.918;5.338;2023-02-15T08:31:58;5.50;99.90
40828;DHT22;26549;50.918;5.338;2023-02-15T08:34:29;5.60;99.90
40828;DHT22;26549;50.918;5.338;2023-02-15T08:36:55;5.60;99.90
40828;DHT22;26549;50.918;5.338;2023-02-15T08:39:21;5.80;99.90
40828;DHT22;26549;50.918;5.338;2023-02-15T08:41:48;5.90;99.90
40828;DHT22;26549;50.918;5.338;2023-02-15T08:44:16;6.00;99.90
40828;DHT22;26549;50.918;5.338;2023-02-15T08:46:44;6.10;99.90
40828;DHT22;26549;50.918;5.338;2023-02-15T08:49:16;6.30;99.90
40828;DHT22;26549;50.918;5.338;2023-02-15T08:51:42;6.40;99.90
40828;DHT22;26549;50.918;5.338;2023-02-15T08:54:13;6.50;99.90
40828;DHT22;26549;50.918;5.338;2023-02-15T08:56:42;6.60;99.90
40828;DHT22;26549;50.918;5.338;2023-02-15T08:59:14;6.80;99.90
40828;DHT22;26549;50.918;5.338;2023-02-15T09:01:43;6.80;99.90
40828;DHT22;26549;50.918;5.338;2023-02-15T09:04:10;6.90;99.90
40828;DHT22;26549;50.918;5.338;2023-02-15T09:06:37;7.00;99.90
40828;DHT22;26549;50.918;5.338;2023-02-15T09:09:03;7.10;99.90
40828;DHT22;26549;50.918;5.338;2023-02-15T09:11:33;7.20;99.90
40828;DHT22;26549;50.918;5.338;2023-02-15T09:14:04;7.30;99.90
40828;DHT22;26549;50.918;5.338;2023-02-15T09:16:32;7.40;99.90
40828;DHT22;26549;50.918;5.338;2023-02-15T09:18:59;7.50;99.90
40828;DHT22;26549;50.918;5.338;2023-02-15T09:21:30;7.60;99.90
40828;DHT22;26549;50.918;5.338;2023-02-15T09:23:59;7.70;99.90
40828;DHT22;26549;50.918;5.338;2023-02-15T09:26:29;7.90;99.90
40828;DHT22;26549;50.918;5.338;2023-02-15T09:28:57;8.10;99.90
40828;DHT22;26549;50.918;5.338;2023-02-15T09:31:32;8.20;99.90
40828;DHT22;26549;50.918;5.338;2023-02-15T09:33:59;8.40;99.90
40828;DHT22;26549;50.918;5.338;2023-02-15T09:36:31;8.50;99.90
40828;DHT22;26549;50.918;5.338;2023-02-15T09:39:00;8.70;99.90
40828;DHT22;26549;50.918;5.338;2023-02-15T10:06:27;10.20;99.90
40828;DHT22;26549;50.918;5.338;2023-02-15T10:16:55;10.80;99.90
40828;DHT22;26549;50.918;5.338;2023-02-15T10:28:06;11.00;99.90
40828;DHT22;26549;50.918;5.338;2023-02-15T10:31:09;11.20;99.90
40828;DHT22;26549;50.918;5.338;2023-02-15T10:33:40;11.20;99.90
40828;DHT22;26549;50.918;5.338;2023-02-15T10:39:13;11.30;99.90
40828;DHT22;26549;50.918;5.338;2023-02-15T10:45:07;11.70;99.90
40828;DHT22;26549;50.918;5.338;2023-02-15T10:56:39;12.00;99.90
40828;DHT22;26549;50.918;5.338;2023-02-15T10:59:27;12.00;99.90
40828;DHT22;26549;50.918;5.338;2023-02-15T11:09:51;12.10;99.90
40828;DHT22;26549;50.918;5.338;2023-02-15T11:12:24;12.20;99.90
40828;DHT22;26549;50.918;5.338;2023-02-15T11:17:44;12.40;99.90
40828;DHT22;26549;50.918;5.338;2023-02-15T11:22:52;12.60;99.90
40828;DHT22;26549;50.918;5.338;2023-02-15T11:25:39;12.80;99.50
40828;DHT22;26549;50.918;5.338;2023-02-15T11:28:16;12.90;99.60
40828;DHT22;26549;50.918;5.338;2023-02-15T11:30:47;12.90;98.30
40828;DHT22;26549;50.918;5.338;2023-02-15T11:33:29;13.00;98.30
40828;DHT22;26549;50.918;5.338;2023-02-15T11:36:15;12.90;98.00
40828;DHT22;26549;50.918;5.338;2023-02-15T11:38:43;13.00;98.20
40828;DHT22;26549;50.918;5.338;2023-02-15T11:41:13;13.10;97.80
40828;DHT22;26549;50.918;5.338;2023-02-15T11:43:44;13.20;97.70
40828;DHT22;26549;50.918;5.338;2023-02-15T11:46:14;13.20;97.40
40828;DHT22;26549;50.918;5.338;2023-02-15T11:48:40;13.20;97.60
40828;DHT22;26549;50.918;5.338;2023-02-15T11:51:21;13.20;97.20
40828;DHT22;26549;50.918;5.338;2023-02-15T11:53:48;13.20;97.00
40828;DHT22;26549;50.918;5.338;2023-02-15T11:56:25;13.30;97.40
40828;DHT22;26549;50.918;5.338;2023-02-15T12:01:33;13.50;97.20
40828;DHT22;26549;50.918;5.338;2023-02-15T12:04:38;13.50;97.60
40828;DHT22;26549;50.918;5.338;2023-02-15T12:07:36;13.60;96.70
40828;DHT22;26549;50.918;5.338;2023-02-15T12:10:25;13.40;96.50
40828;DHT22;26549;50.918;5.338;2023-02-15T12:15:34;13.50;96.70
40828;DHT22;26549;50.918;5.338;2023-02-15T12:18:01;13.50;97.10
40828;DHT22;26549;50.918;5.338;2023-02-15T12:20:32;13.50;97.00
40828;DHT22;26549;50.918;5.338;2023-02-15T12:23:04;13.40;97.40
40828;DHT22;26549;50.918;5.338;2023-02-15T12:28:03;13.60;97.30
40828;DHT22;26549;50.918;5.338;2023-02-15T12:30:32;13.60;96.60
40828;DHT22;26549;50.918;5.338;2023-02-15T12:33:26;13.70;97.00
40828;DHT22;26549;50.918;5.338;2023-02-15T12:38:37;13.90;95.60
40828;DHT22;26549;50.918;5.338;2023-02-15T12:41:16;13.90;96.30
40828;DHT22;26549;50.918;5.338;2023-02-15T12:43:46;13.90;96.30
40828;DHT22;26549;50.918;5.338;2023-02-15T12:46:24;14.00;96.80
40828;DHT22;26549;50.918;5.338;2023-02-15T12:49:18;14.10;96.20
40828;DHT22;26549;50.918;5.338;2023-02-15T12:51:50;14.00;96.50
40828;DHT22;26549;50.918;5.338;2023-02-15T12:56:56;13.90;96.90
40828;DHT22;26549;50.918;5.338;2023-02-15T12:59:23;13.80;96.60
40828;DHT22;26549;50.918;5.338;2023-02-15T13:01:51;13.80;96.30
40828;DHT22;26549;50.918;5.338;2023-02-15T13:04:23;13.70;97.10
40828;DHT22;26549;50.918;5.338;2023-02-15T13:06:52;13.80;97.20
40828;DHT22;26549;50.918;5.338;2023-02-15T13:12:09;14.00;96.70
40828;DHT22;26549;50.918;5.338;2023-02-15T13:14:36;14.10;96.40
40828;DHT22;26549;50.918;5.338;2023-02-15T13:17:03;14.30;96.30
40828;DHT22;26549;50.918;5.338;2023-02-15T13:19:42;14.30;96.40
40828;DHT22;26549;50.918;5.338;2023-02-15T13:22:14;14.40;96.50
40828;DHT22;26549;50.918;5.338;2023-02-15T13:24:47;14.30;96.70
40828;DHT22;26549;50.918;5.338;2023-02-15T13:27:18;14.30;96.90
40828;DHT22;26549;50.918;5.338;2023-02-15T13:29:48;14.30;96.90
40828;DHT22;26549;50.918;5.338;2023-02-15T13:32:30;14.20;96.50
40828;DHT22;26549;50.918;5.338;2023-02-15T13:34:59;14.10;97.50
40828;DHT22;26549;50.918;5.338;2023-02-15T13:37:53;14.10;97.60
40828;DHT22;26549;50.918;5.338;2023-02-15T13:40:46;14.10;97.30
40828;DHT22;26549;50.918;5.338;2023-02-15T13:51:32;14.10;97.10
40828;DHT22;26549;50.918;5.338;2023-02-15T13:54:26;14.20;97.70
40828;DHT22;26549;50.918;5.338;2023-02-15T14:00:00;14.20;97.40
40828;DHT22;26549;50.918;5.338;2023-02-15T14:02:56;14.20;97.40
40828;DHT22;26549;50.918;5.338;2023-02-15T14:08:31;14.40;96.70
40828;DHT22;26549;50.918;5.338;2023-02-15T14:32:45;14.60;97.40
40828;DHT22;26549;50.918;5.338;2023-02-15T14:35:17;14.50;97.50
40828;DHT22;26549;50.918;5.338;2023-02-15T14:38:04;14.50;97.70
40828;DHT22;26549;50.918;5.338;2023-02-15T14:41:02;14.60;97.60
40828;DHT22;26549;50.918;5.338;2023-02-15T14:43:33;14.70;97.30
40828;DHT22;26549;50.918;5.338;2023-02-15T14:48:49;14.70;96.90
40828;DHT22;26549;50.918;5.338;2023-02-15T14:57:20;14.60;97.30
40828;DHT22;26549;50.918;5.338;2023-02-15T15:05:15;14.30;98.40
40828;DHT22;26549;50.918;5.338;2023-02-15T15:07:48;14.40;98.40
40828;DHT22;26549;50.918;5.338;2023-02-15T15:12:52;14.20;99.00
40828;DHT22;26549;50.918;5.338;2023-02-15T15:18:05;14.10;99.30
40828;DHT22;26549;50.918;5.338;2023-02-15T15:20:44;14.10;99.50
40828;DHT22;26549;50.918;5.338;2023-02-15T15:31:09;14.00;99.90
40828;DHT22;26549;50.918;5.338;2023-02-15T15:45:14;13.70;99.90
40828;DHT22;26549;50.918;5.338;2023-02-15T15:50:25;13.60;99.90
40828;DHT22;26549;50.918;5.338;2023-02-15T15:52:53;13.50;99.90
40828;DHT22;26549;50.918;5.338;2023-02-15T15:55:24;13.50;99.90
40828;DHT22;26549;50.918;5.338;2023-02-15T15:57:57;13.50;99.90
40828;DHT22;26549;50.918;5.338;2023-02-15T16:00:34;13.50;99.90
40828;DHT22;26549;50.918;5.338;2023-02-15T16:03:00;13.50;99.90
40828;DHT22;26549;50.918;5.338;2023-02-15T16:05:26;13.60;99.90
40828;DHT22;26549;50.918;5.338;2023-02-15T16:07:52;13.40;99.90
40828;DHT22;26549;50.918;5.338;2023-02-15T16:10:27;13.40;99.90
40828;DHT22;26549;50.918;5.338;2023-02-15T16:12:53;13.40;99.90
40828;DHT22;26549;50.918;5.338;2023-02-15T16:15:23;13.30;99.90
40828;DHT22;26549;50.918;5.338;2023-02-15T16:17:53;13.20;99.90
40828;DHT22;26549;50.918;5.338;2023-02-15T16:26:00;13.10;99.90
40828;DHT22;26549;50.918;5.338;2023-02-15T16:28:28;13.00;99.90
40828;DHT22;26549;50.918;5.338;2023-02-15T16:31:14;12.90;99.90
40828;DHT22;26549;50.918;5.338;2023-02-15T16:33:42;12.90;99.90
40828;DHT22;26549;50.918;5.338;2023-02-15T16:36:23;12.70;99.90
40828;DHT22;26549;50.918;5.338;2023-02-15T16:41:22;12.60;99.90
40828;DHT22;26549;50.918;5.338;2023-02-15T16:43:50;12.60;99.90
40828;DHT22;26549;50.918;5.338;2023-02-15T16:46:21;12.60;99.90
40828;DHT22;26549;50.918;5.338;2023-02-15T16:48:51;12.60;99.90
40828;DHT22;26549;50.918;5.338;2023-02-15T16:51:23;12.50;99.90
40828;DHT22;26549;50.918;5.338;2023-02-15T16:53:50;12.40;99.90
40828;DHT22;26549;50.918;5.338;2023-02-15T16:56:23;12.40;99.90
40828;DHT22;26549;50.918;5.338;2023-02-15T16:58:50;12.30;99.90
40828;DHT22;26549;50.918;5.338;2023-02-15T17:01:20;12.30;99.90
40828;DHT22;26549;50.918;5.338;2023-02-15T17:03:48;12.20;99.90
40828;DHT22;26549;50.918;5.338;2023-02-15T17:06:26;12.20;99.90
40828;DHT22;26549;50.918;5.338;2023-02-15T17:08:52;12.10;99.90
40828;DHT22;26549;50.918;5.338;2023-02-15T17:11:35;12.10;99.90
40828;DHT22;26549;50.918;5.338;2023-02-15T17:16:54;12.00;99.90
40828;DHT22;26549;50.918;5.338;2023-02-15T17:19:27;11.90;99.90
40828;DHT22;26549;50.918;5.338;2023-02-15T17:21:56;11.80;99.90
40828;DHT22;26549;50.918;5.338;2023-02-15T17:24:38;11.70;99.90
40828;DHT22;26549;50.918;5.338;2023-02-15T17:27:12;11.70;99.90
40828;DHT22;26549;50.918;5.338;2023-02-15T17:29:41;11.60;99.90
40828;DHT22;26549;50.918;5.338;2023-02-15T17:32:17;11.60;99.90
40828;DHT22;26549;50.918;5.338;2023-02-15T17:34:50;11.50;99.90
40828;DHT22;26549;50.918;5.338;2023-02-15T17:37:31;11.50;99.90
40828;DHT22;26549;50.918;5.338;2023-02-15T17:40:10;11.50;99.90
40828;DHT22;26549;50.918;5.338;2023-02-15T17:42:40;11.50;99.90
40828;DHT22;26549;50.918;5.338;2023-02-15T17:45:06;11.50;99.90
40828;DHT22;26549;50.918;5.338;2023-02-15T17:47:33;11.50;99.90
40828;DHT22;26549;50.918;5.338;2023-02-15T17:50:03;11.50;99.90
40828;DHT22;26549;50.918;5.338;2023-02-15T17:52:30;11.50;99.90
40828;DHT22;26549;50.918;5.338;2023-02-15T17:54:56;11.40;99.90
40828;DHT22;26549;50.918;5.338;2023-02-15T17:57:41;11.40;99.90
40828;DHT22;26549;50.918;5.338;2023-02-15T18:00:12;11.30;99.90
40828;DHT22;26549;50.918;5.338;2023-02-15T18:02:56;11.40;99.90
40828;DHT22;26549;50.918;5.338;2023-02-15T18:05:40;11.30;99.90
40828;DHT22;26549;50.918;5.338;2023-02-15T18:08:27;11.30;99.90
40828;DHT22;26549;50.918;5.338;2023-02-15T18:11:11;11.30;99.90
40828;DHT22;26549;50.918;5.338;2023-02-15T18:13:57;11.30;99.90
40828;DHT22;26549;50.918;5.338;2023-02-15T18:16:27;11.30;99.90
40828;DHT22;26549;50.918;5.338;2023-02-15T18:18:54;11.20;99.90
40828;DHT22;26549;50.918;5.338;2023-02-15T18:21:20;11.20;99.90
40828;DHT22;26549;50.918;5.338;2023-02-15T18:23:46;11.10;99.90
40828;DHT22;26549;50.918;5.338;2023-02-15T18:26:21;11.20;99.90
40828;DHT22;26549;50.918;5.338;2023-02-15T18:28:49;11.20;99.90
40828;DHT22;26549;50.918;5.338;2023-02-15T18:31:17;11.20;99.90
40828;DHT22;26549;50.918;5.338;2023-02-15T18:33:52;11.20;99.90
40828;DHT22;26549;50.918;5.338;2023-02-15T18:36:31;11.10;99.90
40828;DHT22;26549;50.918;5.338;2023-02-15T18:38:58;11.00;99.90
40828;DHT22;26549;50.918;5.338;2023-02-15T18:41:24;11.00;99.90
40828;DHT22;26549;50.918;5.338;2023-02-15T18:43:50;10.90;99.90
40828;DHT22;26549;50.918;5.338;2023-02-15T18:46:20;10.90;99.90
40828;DHT22;26549;50.918;5.338;2023-02-15T18:48:46;10.90;99.90
40828;DHT22;26549;50.918;5.338;2023-02-15T18:51:20;10.90;99.90
40828;DHT22;26549;50.918;5.338;2023-02-15T18:53:49;10.90;99.90
40828;DHT22;26549;50.918;5.338;2023-02-15T18:56:16;10.90;99.90
40828;DHT22;26549;50.918;5.338;2023-02-15T18:58:43;10.80;99.90
40828;DHT22;26549;50.918;5.338;2023-02-15T19:01:17;10.70;99.90
40828;DHT22;26549;50.918;5.338;2023-02-15T19:03:49;10.70;99.90
40828;DHT22;26549;50.918;5.338;2023-02-15T19:06:18;10.70;99.90
40828;DHT22;26549;50.918;5.338;2023-02-15T19:08:45;10.60;99.90
40828;DHT22;26549;50.918;5.338;2023-02-15T19:11:20;10.60;99.90
40828;DHT22;26549;50.918;5.338;2023-02-15T19:13:48;10.60;99.90
40828;DHT22;26549;50.918;5.338;2023-02-15T19:16:40;10.60;99.90
40828;DHT22;26549;50.918;5.338;2023-02-15T19:19:06;10.50;99.90
40828;DHT22;26549;50.918;5.338;2023-02-15T19:21:32;10.50;99.90
40828;DHT22;26549;50.918;5.338;2023-02-15T19:24:01;10.40;99.90
40828;DHT22;26549;50.918;5.338;2023-02-15T19:26:28;10.40;99.90
40828;DHT22;26549;50.918;5.338;2023-02-15T19:28:59;10.50;99.90
40828;DHT22;26549;50.918;5.338;2023-02-15T19:31:26;10.40;99.90
40828;DHT22;26549;50.918;5.338;2023-02-15T19:33:52;10.40;99.90
40828;DHT22;26549;50.918;5.338;2023-02-15T19:36:18;10.40;99.90